createdAt,value
2022-11-05T00:02:32.428Z,86.13
2022-11-05T00:05:18.877Z,85.75
2022-11-05T00:08:07.422Z,84.66
2022-11-05T00:10:35.964Z,87.87
2022-11-05T00:13:22.333Z,86.77
2022-11-05T00:16:08.623Z,89.79
2022-11-05T00:18:35.960Z,90.85
2022-11-05T00:21:03.626Z,89.14
2022-11-05T00:23:49.787Z,89.94
2022-11-05T00:26:17.215Z,92.07
2022-11-05T00:28:44.712Z,91.52
2022-11-05T00:31:13.366Z,91.31
2022-11-05T00:33:41.943Z,91.11
2022-11-05T00:36:09.976Z,88.44
2022-11-05T00:38:37.309Z,88.45
2022-11-05T00:41:04.934Z,89.35
2022-11-05T00:43:51.003Z,89.81
2022-11-05T00:46:18.586Z,90.22
2022-11-05T00:49:04.706Z,90.54
2022-11-05T00:51:32.168Z,91.72
2022-11-05T00:53:59.453Z,92.56
2022-11-05T00:56:26.760Z,90.95
2022-11-05T00:58:55.746Z,91.22
2022-11-05T01:01:23.151Z,90.88
2022-11-05T01:03:51.739Z,88.79
2022-11-05T01:06:19.729Z,89.23
2022-11-05T01:08:47.129Z,90.28
2022-11-05T01:11:33.420Z,89.74
2022-11-05T01:14:02.222Z,89.83
2022-11-05T01:16:29.551Z,90.49
2022-11-05T01:18:56.866Z,91.33
2022-11-05T01:21:24.444Z,91.27
2022-11-05T01:23:51.776Z,92.52
2022-11-05T01:26:19.117Z,91.68
2022-11-05T01:28:53.798Z,90.58
2022-11-05T01:31:21.369Z,91.15
2022-11-05T01:33:48.954Z,93.00
2022-11-05T01:36:16.317Z,93.81
2022-11-05T01:38:43.631Z,93.38
2022-11-05T01:41:11.204Z,94.45
2022-11-05T01:43:52.747Z,95.12
2022-11-05T01:46:23.834Z,94.47
2022-11-05T01:48:52.035Z,92.44
2022-11-05T01:51:22.263Z,91.29
2022-11-05T01:53:52.419Z,93.22
2022-11-05T01:56:29.086Z,94.76
2022-11-05T01:59:03.488Z,94.98
2022-11-05T02:01:31.154Z,94.74
2022-11-05T02:04:01.470Z,91.41
2022-11-05T02:06:29.279Z,93.96
2022-11-05T02:09:07.503Z,92.07
2022-11-05T02:11:35.172Z,92.20
2022-11-05T02:14:02.498Z,93.27
2022-11-05T02:16:48.839Z,93.43
2022-11-05T02:19:50.376Z,94.67
2022-11-05T02:22:50.952Z,95.90
2022-11-05T02:25:51.937Z,96.42
2022-11-05T02:28:25.094Z,96.29
2022-11-05T02:31:00.509Z,95.74
2022-11-05T02:33:58.833Z,95.99
2022-11-05T02:36:49.798Z,95.97
2022-11-05T02:39:25.826Z,95.72
2022-11-05T02:42:11.832Z,95.52
2022-11-05T02:45:08.862Z,95.77
2022-11-05T02:47:45.444Z,97.74
2022-11-05T02:50:20.824Z,97.49
2022-11-05T02:53:11.165Z,97.23
2022-11-05T02:55:42.022Z,96.50
2022-11-05T02:58:10.831Z,94.71
2022-11-05T03:00:48.531Z,94.98
2022-11-05T03:03:19.335Z,94.98
2022-11-05T03:06:18.178Z,95.61
2022-11-05T03:09:20.247Z,95.00
2022-11-05T03:12:15.108Z,95.09
2022-11-05T03:14:51.174Z,95.27
2022-11-05T03:17:36.630Z,95.61
2022-11-05T03:20:10.227Z,95.14
2022-11-05T03:22:40.917Z,95.23
2022-11-05T03:25:11.337Z,94.56
2022-11-05T03:27:39.825Z,95.46
2022-11-05T03:30:09.003Z,91.97
2022-11-05T03:32:39.040Z,94.84
2022-11-05T03:35:10.371Z,94.06
2022-11-05T03:37:38.506Z,93.69
2022-11-05T03:40:06.748Z,93.09
2022-11-05T03:42:35.375Z,91.66
2022-11-05T03:45:07.153Z,93.31
2022-11-05T03:47:37.272Z,90.34
2022-11-05T03:50:13.030Z,91.64
2022-11-05T03:52:44.282Z,94.24
2022-11-05T03:55:11.866Z,92.73
2022-11-05T03:57:40.217Z,93.17
2022-11-05T04:00:08.540Z,91.71
2022-11-05T04:02:39.024Z,92.03
2022-11-05T04:05:06.824Z,93.14
2022-11-05T04:07:52.604Z,91.50
2022-11-05T04:10:39.195Z,92.16
2022-11-05T04:13:24.733Z,92.42
2022-11-05T04:16:11.446Z,92.16
2022-11-05T04:18:38.763Z,93.39
2022-11-05T04:21:24.898Z,92.51
2022-11-05T04:24:10.372Z,92.80
2022-11-05T04:26:44.589Z,91.78
2022-11-05T04:29:30.728Z,90.26
2022-11-05T04:31:58.185Z,90.58
2022-11-05T04:34:25.496Z,91.90
2022-11-05T04:36:53.192Z,90.21
2022-11-05T04:39:20.984Z,91.18
2022-11-05T04:41:48.744Z,91.17
2022-11-05T04:44:16.486Z,92.12
2022-11-05T04:46:44.123Z,91.99
2022-11-05T04:49:11.450Z,93.03
2022-11-05T04:51:38.819Z,89.67
2022-11-05T04:54:06.396Z,89.63
2022-11-05T04:56:33.831Z,92.08
2022-11-05T04:59:01.170Z,93.13
2022-11-05T05:01:28.870Z,91.92
2022-11-05T05:03:56.301Z,91.03
2022-11-05T05:06:23.972Z,90.40
2022-11-05T05:08:51.829Z,91.38
2022-11-05T05:11:20.312Z,91.25
2022-11-05T05:13:47.767Z,91.68
2022-11-05T05:16:23.253Z,91.42
2022-11-05T05:18:50.814Z,89.74
2022-11-05T05:21:37.756Z,89.89
2022-11-05T05:24:13.162Z,89.93
2022-11-05T05:26:42.429Z,89.38
2022-11-05T05:29:10.291Z,89.95
2022-11-05T05:31:37.627Z,89.36
2022-11-05T05:34:05.530Z,89.97
2022-11-05T05:36:32.872Z,89.01
2022-11-05T05:39:00.210Z,88.87
2022-11-05T05:41:28.279Z,87.36
2022-11-05T05:43:55.603Z,88.95
2022-11-05T05:46:22.945Z,86.60
2022-11-05T05:48:51.418Z,87.54
2022-11-05T05:51:19.020Z,88.56
2022-11-05T05:53:46.409Z,87.66
2022-11-05T05:56:20.478Z,88.15
2022-11-05T05:58:47.892Z,88.11
2022-11-05T06:01:19.379Z,89.18
2022-11-05T06:03:48.063Z,88.34
2022-11-05T06:06:15.961Z,87.08
2022-11-05T06:08:43.284Z,87.47
2022-11-05T06:11:11.022Z,87.23
2022-11-05T06:13:38.383Z,87.86
2022-11-05T06:16:07.216Z,85.99
2022-11-05T06:18:34.928Z,84.97
2022-11-05T06:21:05.890Z,87.69
2022-11-05T06:23:33.686Z,85.70
2022-11-05T06:26:02.432Z,86.80
2022-11-05T06:28:29.808Z,86.14
2022-11-05T06:30:57.570Z,86.83
2022-11-05T06:33:25.228Z,85.36
2022-11-05T06:35:53.064Z,86.86
2022-11-05T06:38:20.382Z,87.06
2022-11-05T06:40:47.951Z,83.02
2022-11-05T06:43:15.268Z,83.87
2022-11-05T06:45:42.618Z,83.09
2022-11-05T06:48:10.247Z,86.14
2022-11-05T06:50:37.632Z,86.06
2022-11-05T06:53:05.373Z,83.72
2022-11-05T06:55:32.964Z,86.72
2022-11-05T06:58:00.312Z,86.13
2022-11-05T07:00:27.615Z,87.87
2022-11-05T07:02:58.414Z,85.84
2022-11-05T07:05:25.715Z,86.88
2022-11-05T07:07:53.056Z,83.86
2022-11-05T07:10:20.653Z,86.35
2022-11-05T07:12:47.981Z,85.60
2022-11-05T07:15:15.319Z,83.75
2022-11-05T07:17:42.904Z,83.51
2022-11-05T07:20:10.891Z,83.21
2022-11-05T07:22:38.540Z,83.67
2022-11-05T07:25:06.559Z,83.06
2022-11-05T07:27:39.104Z,83.41
2022-11-05T07:30:09.950Z,82.62
2022-11-05T07:32:40.822Z,84.44
2022-11-05T07:35:09.001Z,82.54
2022-11-05T07:37:46.289Z,82.79
2022-11-05T07:40:14.496Z,80.55
2022-11-05T07:42:43.435Z,81.56
2022-11-05T07:45:11.384Z,81.78
2022-11-05T07:47:49.196Z,82.47
2022-11-05T07:50:17.430Z,78.41
2022-11-05T07:52:45.107Z,79.97
2022-11-05T07:55:13.318Z,80.15
2022-11-05T07:57:44.716Z,77.05
2022-11-05T08:00:20.320Z,80.85
2022-11-05T08:03:15.261Z,80.81
2022-11-05T08:05:44.669Z,80.76
2022-11-05T08:08:14.018Z,81.79
2022-11-05T08:10:41.372Z,81.26
2022-11-05T08:13:09.063Z,79.78
2022-11-05T08:15:36.806Z,78.59
2022-11-05T08:18:08.383Z,80.85
2022-11-05T08:20:36.092Z,79.50
2022-11-05T08:23:03.682Z,80.20
2022-11-05T08:25:31.090Z,80.92
2022-11-05T08:27:59.547Z,80.57
2022-11-05T08:30:27.227Z,78.76
2022-11-05T08:33:01.385Z,78.53
2022-11-05T08:35:29.082Z,78.75
2022-11-05T08:38:00.613Z,78.95
2022-11-05T08:40:28.071Z,80.27
2022-11-05T08:42:59.256Z,79.98
2022-11-05T08:45:27.022Z,79.13
2022-11-05T08:48:08.135Z,78.25
2022-11-05T08:50:35.746Z,77.49
2022-11-05T08:53:03.688Z,79.51
2022-11-05T08:55:31.312Z,77.13
2022-11-05T08:57:59.788Z,78.65
2022-11-05T09:00:28.450Z,77.60
2022-11-05T09:02:56.635Z,75.63
2022-11-05T09:05:24.239Z,76.11
2022-11-05T09:07:53.136Z,76.62
2022-11-05T09:10:24.135Z,76.70
2022-11-05T09:12:51.564Z,77.17
2022-11-05T09:15:18.929Z,75.48
2022-11-05T09:17:46.485Z,74.48
2022-11-05T09:20:13.934Z,75.25
2022-11-05T09:22:43.436Z,76.51
2022-11-05T09:25:11.325Z,75.77
2022-11-05T09:27:38.667Z,77.06
2022-11-05T09:30:06.469Z,77.36
2022-11-05T09:32:34.048Z,76.83
2022-11-05T09:35:01.414Z,78.25
2022-11-05T09:37:28.783Z,78.10
2022-11-05T09:39:56.379Z,77.45
2022-11-05T09:42:28.569Z,76.03
2022-11-05T09:45:03.517Z,77.66
2022-11-05T09:47:41.370Z,75.09
2022-11-05T09:50:17.628Z,75.10
2022-11-05T09:52:44.949Z,75.95
2022-11-05T09:55:33.778Z,75.83
2022-11-05T09:58:02.929Z,75.83
2022-11-05T10:00:30.507Z,75.06
2022-11-05T10:03:00.224Z,75.20
2022-11-05T10:05:27.843Z,73.37
2022-11-05T10:08:03.022Z,72.48
2022-11-05T10:10:48.023Z,71.53
2022-11-05T10:13:29.744Z,70.88
2022-11-05T10:16:06.863Z,71.92
2022-11-05T10:18:36.418Z,72.14
2022-11-05T10:21:04.195Z,71.68
2022-11-05T10:23:32.143Z,73.55
2022-11-05T10:26:00.662Z,72.24
2022-11-05T10:28:29.684Z,73.17
2022-11-05T10:31:07.855Z,74.97
2022-11-05T10:33:44.731Z,74.74
2022-11-05T10:36:35.844Z,74.33
2022-11-05T10:39:09.435Z,74.07
2022-11-05T10:41:55.454Z,75.43
2022-11-05T10:44:41.264Z,74.89
2022-11-05T10:47:39.627Z,74.35
2022-11-05T10:50:24.628Z,73.32
2022-11-05T10:52:51.849Z,73.61
2022-11-05T10:55:29.475Z,73.27
2022-11-05T10:58:15.678Z,74.16
2022-11-05T11:00:59.901Z,72.18
2022-11-05T11:03:39.441Z,72.88
2022-11-05T11:06:22.375Z,73.63
2022-11-05T11:08:50.126Z,72.54
2022-11-05T11:11:36.929Z,72.16
2022-11-05T11:14:19.408Z,72.42
2022-11-05T11:16:57.689Z,73.98
2022-11-05T11:19:27.492Z,73.35
2022-11-05T11:22:03.761Z,74.52
2022-11-05T11:24:37.024Z,73.60
2022-11-05T11:27:11.036Z,72.09
2022-11-05T11:29:42.908Z,70.97
2022-11-05T11:32:14.501Z,70.30
2022-11-05T11:34:41.867Z,71.29
2022-11-05T11:37:30.411Z,72.78
2022-11-05T11:40:02.082Z,71.87
2022-11-05T11:42:34.760Z,73.84
2022-11-05T11:45:07.829Z,73.60
2022-11-05T11:47:35.210Z,72.90
2022-11-05T11:50:03.114Z,72.38
2022-11-05T11:52:32.207Z,72.67
2022-11-05T11:55:17.818Z,72.22
2022-11-05T11:57:50.390Z,72.37
2022-11-05T12:00:18.461Z,71.98
2022-11-05T12:03:07.904Z,72.71
2022-11-05T12:05:58.358Z,70.44
2022-11-05T12:09:08.244Z,71.08
2022-11-05T12:12:02.380Z,70.47
2022-11-05T12:14:53.425Z,71.54
2022-11-05T12:17:39.647Z,69.23
2022-11-05T12:20:20.731Z,72.02
2022-11-05T12:23:01.347Z,70.68
2022-11-05T12:26:01.196Z,71.71
2022-11-05T12:29:12.003Z,72.40
2022-11-05T12:32:10.133Z,71.48
2022-11-05T12:35:05.345Z,72.35
2022-11-05T12:38:02.025Z,73.24
2022-11-05T12:40:36.578Z,72.73
2022-11-05T12:43:26.536Z,72.22
2022-11-05T12:46:12.687Z,72.26
2022-11-05T12:48:43.127Z,72.31
2022-11-05T12:51:25.131Z,72.63
2022-11-05T12:54:01.679Z,71.45
2022-11-05T12:56:44.251Z,71.49
2022-11-05T12:59:25.230Z,70.75
2022-11-05T13:02:00.226Z,71.49
2022-11-05T13:04:43.555Z,72.55
2022-11-05T13:07:13.714Z,72.75
2022-11-05T13:09:48.112Z,71.31
2022-11-05T13:12:15.839Z,70.68
2022-11-05T13:14:48.848Z,70.86
2022-11-05T13:17:17.646Z,72.52
2022-11-05T13:20:17.487Z,71.44
2022-11-05T13:23:20.234Z,70.43
2022-11-05T13:25:54.634Z,72.06
2022-11-05T13:28:25.167Z,70.96
2022-11-05T13:30:55.190Z,71.38
2022-11-05T13:33:25.022Z,69.46
2022-11-05T13:36:45.926Z,70.19
2022-11-05T13:39:29.928Z,70.68
2022-11-05T13:42:27.972Z,71.17
2022-11-05T13:45:13.321Z,71.38
2022-11-05T13:48:02.063Z,70.46
2022-11-05T13:51:00.304Z,71.01
2022-11-05T13:53:53.532Z,71.57
2022-11-05T13:56:28.889Z,71.85
2022-11-05T13:59:02.973Z,71.72
2022-11-05T14:01:39.353Z,71.71
2022-11-05T14:04:07.145Z,72.13
2022-11-05T14:06:35.477Z,73.06
2022-11-05T14:09:04.991Z,72.81
2022-11-05T14:11:43.256Z,73.81
2022-11-05T14:14:18.009Z,72.78
2022-11-05T14:17:07.597Z,72.22
2022-11-05T14:19:51.512Z,72.34
2022-11-05T14:22:48.058Z,72.66
2022-11-05T14:25:18.260Z,72.90
2022-11-05T14:27:47.532Z,72.94
2022-11-05T14:30:43.531Z,73.80
2022-11-05T14:33:40.073Z,71.29
2022-11-05T14:36:36.863Z,72.82
2022-11-05T14:39:24.019Z,74.03
2022-11-05T14:42:04.382Z,72.74
2022-11-05T14:44:34.286Z,73.00
2022-11-05T14:47:06.033Z,72.42
2022-11-05T14:49:36.996Z,72.38
2022-11-05T14:52:09.197Z,72.25
2022-11-05T14:54:50.719Z,73.34
2022-11-05T14:57:43.203Z,74.05
2022-11-05T15:00:40.441Z,74.26
2022-11-05T15:03:46.417Z,73.24
2022-11-05T15:06:27.577Z,72.14
2022-11-05T15:09:14.510Z,72.93
2022-11-05T15:11:52.714Z,72.82
2022-11-05T15:14:34.878Z,71.73
2022-11-05T15:17:30.910Z,73.28
2022-11-05T15:20:10.982Z,71.61
2022-11-05T15:22:41.522Z,71.90
2022-11-05T15:25:53.888Z,73.92
2022-11-05T15:28:41.547Z,73.11
2022-11-05T15:31:14.886Z,72.84
2022-11-05T15:33:47.610Z,74.04
2022-11-05T15:36:20.945Z,74.32
2022-11-05T15:39:08.506Z,72.74
2022-11-05T15:41:35.824Z,71.78
2022-11-05T15:44:03.426Z,73.70
2022-11-05T15:46:31.257Z,73.62
2022-11-05T15:49:03.631Z,75.37
2022-11-05T15:51:31.208Z,73.42
2022-11-05T15:54:24.366Z,74.91
2022-11-05T15:56:57.085Z,73.48
2022-11-05T15:59:25.638Z,75.16
2022-11-05T16:02:24.115Z,75.66
2022-11-05T16:04:51.803Z,76.79
2022-11-05T16:07:19.296Z,77.27
2022-11-05T16:09:52.183Z,75.15
2022-11-05T16:12:19.753Z,75.89
2022-11-05T16:15:08.424Z,78.72
2022-11-05T16:17:55.349Z,77.74
2022-11-05T16:20:32.063Z,78.41
2022-11-05T16:23:07.958Z,81.55
2022-11-05T16:25:38.998Z,80.25
2022-11-05T16:28:19.257Z,79.35
2022-11-05T16:30:56.956Z,82.03
2022-11-05T16:33:32.004Z,83.85
2022-11-05T16:35:59.352Z,81.87
2022-11-05T16:38:26.944Z,78.95
2022-11-05T16:40:54.263Z,81.52
2022-11-05T16:43:24.187Z,81.38
2022-11-05T16:45:57.637Z,80.80
2022-11-05T16:48:25.180Z,80.04
2022-11-05T16:50:53.091Z,79.17
2022-11-05T16:53:20.439Z,77.81
2022-11-05T16:55:47.721Z,80.95
2022-11-05T16:58:25.499Z,78.26
2022-11-05T17:00:55.352Z,79.78
2022-11-05T17:03:22.929Z,79.71
2022-11-05T17:05:50.289Z,84.47
2022-11-05T17:08:17.673Z,85.07
2022-11-05T17:10:45.283Z,82.89
2022-11-05T17:13:16.360Z,83.23
2022-11-05T17:15:44.529Z,86.23
2022-11-05T17:18:17.076Z,86.27
2022-11-05T17:20:48.080Z,85.14
2022-11-05T17:23:18.269Z,88.14
2022-11-05T17:25:56.165Z,88.25
2022-11-05T17:28:24.037Z,87.24
2022-11-05T17:30:54.108Z,84.77
2022-11-05T17:33:22.739Z,85.58
2022-11-05T17:35:50.768Z,88.52
2022-11-05T17:38:18.211Z,89.84
2022-11-05T17:40:45.532Z,91.16
2022-11-05T17:43:13.422Z,91.20
2022-11-05T17:45:45.231Z,93.13
2022-11-05T17:48:13.088Z,93.63
2022-11-05T17:50:44.607Z,94.55
2022-11-05T17:53:12.770Z,93.69
2022-11-05T17:55:44.433Z,94.38
2022-11-05T17:58:11.751Z,93.02
2022-11-05T18:00:39.403Z,91.83
2022-11-05T18:03:07.033Z,93.56
2022-11-05T18:05:34.457Z,95.73
2022-11-05T18:08:02.120Z,96.36
2022-11-05T18:10:29.721Z,94.84
2022-11-05T18:12:57.064Z,95.57
2022-11-05T18:15:24.413Z,95.42
2022-11-05T18:17:51.988Z,96.27
2022-11-05T18:20:19.797Z,94.86
2022-11-05T18:22:48.955Z,94.60
2022-11-05T18:25:16.573Z,96.42
2022-11-05T18:27:43.889Z,93.41
2022-11-05T18:30:13.900Z,92.88
2022-11-05T18:32:42.425Z,91.64
2022-11-05T18:35:09.807Z,89.15
2022-11-05T18:37:37.918Z,90.59
2022-11-05T18:40:06.470Z,93.57
2022-11-05T18:42:34.056Z,93.42
2022-11-05T18:45:01.361Z,93.87
2022-11-05T18:47:28.959Z,94.83
2022-11-05T18:49:56.302Z,93.49
2022-11-05T18:52:23.655Z,95.09
2022-11-05T18:54:51.257Z,95.25
2022-11-05T18:57:18.621Z,95.61
2022-11-05T18:59:46.946Z,95.15
2022-11-05T19:02:14.843Z,96.13
2022-11-05T19:05:00.358Z,95.59
2022-11-05T19:07:29.940Z,95.64
2022-11-05T19:09:57.252Z,92.77
2022-11-05T19:12:24.584Z,94.51
2022-11-05T19:14:52.164Z,96.58
2022-11-05T19:17:19.476Z,96.61
2022-11-05T19:19:46.813Z,96.16
2022-11-05T19:22:14.386Z,92.22
2022-11-05T19:24:41.712Z,91.84
2022-11-05T19:27:09.027Z,92.75
2022-11-05T19:29:36.947Z,97.15
2022-11-05T19:32:04.453Z,96.75
2022-11-05T19:34:31.891Z,96.28
2022-11-05T19:36:59.458Z,95.98
2022-11-05T19:39:26.793Z,98.26
2022-11-05T19:41:57.623Z,97.69
2022-11-05T19:44:28.053Z,99.25
2022-11-05T19:46:55.356Z,98.85
2022-11-05T19:49:22.692Z,98.55
2022-11-05T19:51:50.299Z,97.64
2022-11-05T19:54:17.603Z,99.22
2022-11-05T19:56:45.635Z,99.72
2022-11-05T19:59:13.284Z,98.43
2022-11-05T20:01:40.769Z,97.33
2022-11-05T20:04:09.532Z,95.32
2022-11-05T20:06:38.728Z,97.57
2022-11-05T20:09:25.545Z,97.20
2022-11-05T20:11:56.987Z,96.97
2022-11-05T20:14:24.852Z,97.94
2022-11-05T20:16:52.252Z,96.28
2022-11-05T20:19:20.952Z,94.58
2022-11-05T20:21:48.308Z,98.50
2022-11-05T20:24:22.401Z,95.80
2022-11-05T20:26:55.164Z,96.20
2022-11-05T20:29:22.689Z,97.21
2022-11-05T20:31:50.135Z,98.96
2022-11-05T20:34:17.707Z,94.13
2022-11-05T20:36:45.063Z,91.15
2022-11-05T20:39:12.404Z,97.70
2022-11-05T20:41:39.978Z,98.47
2022-11-05T20:44:07.471Z,96.72
2022-11-05T20:46:34.818Z,96.74
2022-11-05T20:49:02.423Z,97.01
2022-11-05T20:51:29.779Z,98.17
2022-11-05T20:53:58.611Z,99.58
2022-11-05T20:56:31.249Z,97.03
2022-11-05T20:58:59.033Z,98.39
2022-11-05T21:01:27.695Z,98.74
2022-11-05T21:03:55.184Z,96.41
2022-11-05T21:06:22.534Z,96.31
2022-11-05T21:08:50.627Z,96.15
2022-11-05T21:11:18.541Z,95.53
2022-11-05T21:13:46.070Z,95.76
2022-11-05T21:16:18.016Z,96.78
2022-11-05T21:18:46.173Z,96.59
2022-11-05T21:21:18.305Z,97.84
2022-11-05T21:23:45.848Z,93.87
2022-11-05T21:26:13.778Z,92.22
2022-11-05T21:28:41.547Z,93.22
2022-11-05T21:31:08.927Z,93.88
2022-11-05T21:33:36.388Z,93.24
2022-11-05T21:36:08.368Z,96.50
2022-11-05T21:38:35.671Z,96.13
2022-11-05T21:41:03.127Z,97.07
2022-11-05T21:43:30.731Z,97.74
2022-11-05T21:46:01.026Z,97.18
2022-11-05T21:48:28.407Z,95.25
2022-11-05T21:51:14.608Z,97.20
2022-11-05T21:54:00.613Z,96.42
2022-11-05T21:56:47.022Z,93.79
2022-11-05T21:59:37.936Z,98.86
2022-11-05T22:02:05.814Z,97.34
2022-11-05T22:04:35.267Z,95.84
2022-11-05T22:07:02.953Z,99.06
2022-11-05T22:09:30.262Z,98.70
2022-11-05T22:11:57.846Z,98.68
2022-11-05T22:14:25.244Z,98.96
2022-11-05T22:16:52.583Z,94.41
2022-11-05T22:19:20.357Z,94.64
2022-11-05T22:21:47.727Z,96.94
2022-11-05T22:24:15.107Z,98.94
2022-11-05T22:26:43.071Z,96.02
2022-11-05T22:29:10.416Z,97.42
2022-11-05T22:31:37.833Z,98.41
2022-11-05T22:34:05.543Z,99.04
2022-11-05T22:36:33.378Z,97.57
2022-11-05T22:39:00.814Z,96.56
2022-11-05T22:41:28.515Z,96.62
2022-11-05T22:43:55.902Z,94.86
2022-11-05T22:46:24.312Z,98.33
2022-11-05T22:48:51.905Z,98.07
2022-11-05T22:51:24.142Z,94.80
2022-11-05T22:53:51.732Z,95.21
2022-11-05T22:56:22.381Z,94.79
2022-11-05T22:58:49.781Z,93.48
2022-11-05T23:01:17.604Z,98.51
2022-11-05T23:03:46.109Z,97.38
2022-11-05T23:06:39.828Z,97.43
2022-11-05T23:09:37.274Z,94.84
2022-11-05T23:12:06.406Z,95.08
2022-11-05T23:14:35.476Z,96.49
2022-11-05T23:17:21.463Z,95.33
2022-11-05T23:20:07.974Z,95.95
2022-11-05T23:22:53.898Z,94.59
2022-11-05T23:25:22.363Z,96.67
2022-11-05T23:27:51.117Z,94.49
2022-11-05T23:30:23.532Z,94.91
2022-11-05T23:32:51.095Z,98.11
2022-11-05T23:35:38.418Z,96.27
2022-11-05T23:38:24.819Z,98.81
2022-11-05T23:41:10.727Z,97.15
2022-11-05T23:43:57.379Z,95.20
2022-11-05T23:46:43.287Z,94.33
2022-11-05T23:49:10.855Z,94.79
2022-11-05T23:51:38.194Z,90.93
2022-11-05T23:54:05.529Z,92.61
2022-11-05T23:56:33.145Z,92.05
2022-11-05T23:59:00.478Z,90.03
